Time;durP1;ratioP1;P1;durP2;ratioP2;P2;SDS_P1;SDS_P2;PMS_P1;PMS_P2;Temp;Humidity;BMP_temperature;BMP_pressure;BME280_temperature;BME280_humidity;BME280_pressure;Samples;Min_cycle;Max_cycle;Signal;HPM_P1;HPM_P2
2023/03/25 00:01:31;;;;;;;8.23;3.65;;;9.90;99.90;;;;;;5007006;28;20080;-73
2023/03/25 00:03:59;;;;;;;6.45;3.65;;;9.80;99.90;;;;;;5006374;28;20105;-73
2023/03/25 00:06:27;;;;;;;8.85;3.65;;;9.80;99.90;;;;;;5007857;28;20033;-73
2023/03/25 00:08:53;;;;;;;7.55;3.63;;;9.80;99.90;;;;;;5007604;28;20022;-73
2023/03/25 00:11:20;;;;;;;7.50;3.90;;;9.70;99.90;;;;;;5006284;28;20030;-73
2023/03/25 00:13:47;;;;;;;9.73;4.40;;;9.70;99.90;;;;;;5006626;28;20088;-73
2023/03/25 00:16:14;;;;;;;10.60;4.43;;;9.70;99.90;;;;;;5005146;28;20042;-72
2023/03/25 00:18:40;;;;;;;10.73;4.60;;;9.70;99.90;;;;;;5006946;28;20108;-73
2023/03/25 00:21:10;;;;;;;15.02;5.45;;;9.70;99.90;;;;;;5009810;28;20058;-75
2023/03/25 00:23:37;;;;;;;8.60;4.45;;;9.70;99.90;;;;;;5021965;28;20026;-75
2023/03/25 00:26:04;;;;;;;12.15;5.57;;;9.70;99.90;;;;;;5009520;28;20049;-75
2023/03/25 00:28:32;;;;;;;12.45;5.43;;;9.70;99.90;;;;;;5003418;28;20084;-75
2023/03/25 00:31:00;;;;;;;11.10;5.75;;;9.70;99.90;;;;;;4993836;28;20037;-75
2023/03/25 00:33:26;;;;;;;12.63;5.85;;;9.60;99.90;;;;;;5006711;28;20498;-76
2023/03/25 00:35:57;;;;;;;12.38;5.35;;;9.50;99.90;;;;;;5010012;28;20091;-74
2023/03/25 00:38:34;;;;;;;9.85;6.10;;;9.60;99.90;;;;;;5011847;28;20034;-75
2023/03/25 00:41:13;;;;;;;12.80;5.95;;;9.50;99.90;;;;;;5009580;28;20034;-73
2023/03/25 00:43:39;;;;;;;12.07;5.38;;;9.50;99.90;;;;;;5006688;28;20510;-73
2023/03/25 00:46:05;;;;;;;9.88;4.82;;;9.60;99.90;;;;;;5012390;28;20026;-72
2023/03/25 00:48:31;;;;;;;11.32;5.82;;;9.50;99.90;;;;;;5030818;28;20080;-73
2023/03/25 00:50:57;;;;;;;11.10;5.13;;;9.60;99.90;;;;;;5010509;28;20036;-73
2023/03/25 00:53:22;;;;;;;10.00;4.93;;;9.60;99.90;;;;;;5008532;28;20048;-73
2023/03/25 00:55:48;;;;;;;11.18;6.00;;;9.60;99.90;;;;;;5010496;28;20461;-72
2023/03/25 00:58:14;;;;;;;7.07;4.03;;;9.70;99.90;;;;;;5010703;28;20072;-73
2023/03/25 01:00:40;;;;;;;8.10;4.63;;;9.70;99.90;;;;;;5009860;28;20029;-75
2023/03/25 01:03:06;;;;;;;8.05;4.75;;;9.70;99.90;;;;;;4992522;28;20520;-75
2023/03/25 01:05:32;;;;;;;8.65;4.68;;;9.70;99.90;;;;;;5006067;28;20489;-75
2023/03/25 01:07:57;;;;;;;11.63;5.38;;;9.80;99.90;;;;;;5011796;28;20041;-74
2023/03/25 01:10:23;;;;;;;6.65;4.63;;;9.80;99.90;;;;;;5036925;28;20445;-73
2023/03/25 01:12:49;;;;;;;9.18;4.70;;;9.80;99.90;;;;;;5010473;28;20083;-74
2023/03/25 01:15:15;;;;;;;13.65;5.00;;;9.80;99.90;;;;;;5020728;28;20072;-73
2023/03/25 01:17:41;;;;;;;7.63;4.25;;;9.80;99.90;;;;;;5009571;28;20056;-74
2023/03/25 01:20:10;;;;;;;9.02;5.18;;;9.80;99.90;;;;;;5010644;28;20444;-76
2023/03/25 01:22:36;;;;;;;5.85;4.10;;;9.80;99.90;;;;;;5011203;28;20113;-75
2023/03/25 01:25:02;;;;;;;10.10;4.20;;;9.80;99.90;;;;;;5010033;28;20101;-75
2023/03/25 01:27:29;;;;;;;9.85;4.47;;;9.80;99.90;;;;;;5011675;28;20041;-75
2023/03/25 01:29:55;;;;;;;20.27;4.45;;;9.90;99.90;;;;;;5010368;28;20034;-75
2023/03/25 01:32:20;;;;;;;12.20;4.10;;;9.90;99.90;;;;;;5010692;28;20041;-77
2023/03/25 01:34:46;;;;;;;9.00;4.55;;;9.90;99.90;;;;;;5009590;28;20038;-75
2023/03/25 01:37:12;;;;;;;13.57;5.28;;;9.90;99.90;;;;;;5010430;28;20033;-73
2023/03/25 01:39:38;;;;;;;10.50;4.43;;;9.90;99.90;;;;;;5008033;28;20158;-75
2023/03/25 01:42:04;;;;;;;7.70;3.58;;;9.90;99.90;;;;;;5006379;28;20486;-75
2023/03/25 01:44:30;;;;;;;6.70;3.70;;;9.90;99.90;;;;;;5012244;28;20083;-74
2023/03/25 01:47:02;;;;;;;9.05;3.90;;;9.90;99.90;;;;;;5009391;28;20022;-74
2023/03/25 01:49:39;;;;;;;11.20;4.07;;;9.80;99.90;;;;;;5008105;28;20572;-74
2023/03/25 01:52:11;;;;;;;10.55;4.20;;;9.80;99.90;;;;;;5010319;28;20042;-72
2023/03/25 01:54:38;;;;;;;10.50;4.53;;;9.80;99.90;;;;;;5012377;28;20607;-72
2023/03/25 01:57:07;;;;;;;9.35;3.78;;;9.80;99.90;;;;;;5009820;28;20034;-72
2023/03/25 01:59:33;;;;;;;9.23;4.13;;;9.80;99.90;;;;;;5010760;28;20030;-74
2023/03/25 02:02:02;;;;;;;12.25;4.30;;;9.80;99.90;;;;;;4991473;28;20037;-72
2023/03/25 02:04:43;;;;;;;7.18;3.63;;;9.80;99.90;;;;;;5007488;28;20033;-72
2023/03/25 02:07:09;;;;;;;10.35;4.90;;;9.80;99.90;;;;;;5007915;28;20588;-71
2023/03/25 02:09:36;;;;;;;10.95;4.53;;;9.80;99.90;;;;;;5013108;28;20105;-74
2023/03/25 02:12:01;;;;;;;9.48;4.25;;;9.80;99.90;;;;;;5013265;28;20088;-71
2023/03/25 02:14:33;;;;;;;11.65;4.18;;;9.80;99.90;;;;;;5011017;28;20045;-73
2023/03/25 02:17:08;;;;;;;9.25;3.90;;;9.80;99.90;;;;;;4992834;28;20054;-74
2023/03/25 02:19:55;;;;;;;9.85;3.85;;;9.80;99.90;;;;;;5006566;28;20032;-72
2023/03/25 02:22:24;;;;;;;11.77;4.03;;;9.80;99.90;;;;;;5024124;28;20029;-72
2023/03/25 02:25:00;;;;;;;7.18;3.70;;;9.80;99.90;;;;;;5008596;28;20428;-72
2023/03/25 02:27:45;;;;;;;7.47;3.65;;;9.80;99.90;;;;;;5008105;28;20371;-72
2023/03/25 02:30:35;;;;;;;10.60;4.13;;;9.80;99.90;;;;;;5035391;28;20058;-72
2023/03/25 02:33:13;;;;;;;12.20;4.38;;;9.70;99.90;;;;;;5010522;28;20060;-72
2023/03/25 02:36:09;;;;;;;7.03;3.72;;;9.70;99.90;;;;;;5024108;28;20379;-72
2023/03/25 02:38:55;;;;;;;11.00;3.92;;;9.70;99.90;;;;;;5028685;28;20037;-74
2023/03/25 02:41:50;;;;;;;10.20;3.90;;;9.70;99.90;;;;;;5005558;28;20034;-72
2023/03/25 02:44:24;;;;;;;11.25;3.92;;;9.60;99.90;;;;;;5007705;28;20056;-72
2023/03/25 02:46:55;;;;;;;8.25;3.60;;;9.60;99.90;;;;;;5030875;28;20091;-72
2023/03/25 02:49:26;;;;;;;;;;;9.60;99.90;;;;;;5007697;28;20060;-72
2023/03/25 02:51:59;;;;;;;6.95;3.63;;;9.60;99.90;;;;;;5008056;28;19962;-72
2023/03/25 02:54:28;;;;;;;8.52;3.47;;;9.60;99.90;;;;;;5006557;28;20033;-71
2023/03/25 02:56:56;;;;;;;6.78;3.50;;;9.60;99.90;;;;;;5017477;28;20429;-72
2023/03/25 02:59:31;;;;;;;7.68;3.13;;;9.60;99.90;;;;;;5007310;28;20041;-72
2023/03/25 03:01:59;;;;;;;6.25;3.28;;;9.60;99.90;;;;;;5036412;28;20038;-75
2023/03/25 03:04:25;;;;;;;10.40;4.05;;;9.60;99.90;;;;;;5036000;28;20026;-72
2023/03/25 03:06:54;;;;;;;8.70;3.35;;;9.60;99.90;;;;;;5006958;28;20022;-72
2023/03/25 03:09:32;;;;;;;8.15;3.85;;;9.60;99.90;;;;;;5006914;28;20033;-72
2023/03/25 03:12:00;;;;;;;9.18;3.85;;;9.60;99.90;;;;;;5007073;28;20045;-72
2023/03/25 03:14:48;;;;;;;7.78;3.70;;;9.60;99.90;;;;;;5005319;28;20053;-72
2023/03/25 03:17:18;;;;;;;8.25;3.63;;;9.60;99.90;;;;;;5007273;28;20026;-72
2023/03/25 03:19:56;;;;;;;7.63;3.85;;;9.60;99.90;;;;;;5008476;28;20402;-74
2023/03/25 03:22:35;;;;;;;7.95;4.18;;;9.60;99.90;;;;;;5006472;28;20030;-74
2023/03/25 03:25:06;;;;;;;8.23;3.42;;;9.60;99.90;;;;;;5009504;28;20034;-71
2023/03/25 03:27:37;;;;;;;7.93;3.67;;;9.60;99.90;;;;;;5008322;28;20521;-74
2023/03/25 03:30:10;;;;;;;;;;;9.60;99.90;;;;;;5007579;28;20041;-74
2023/03/25 03:33:00;;;;;;;8.32;3.80;;;9.60;99.90;;;;;;5005879;28;20563;-74
2023/03/25 03:35:41;;;;;;;6.78;3.63;;;9.50;99.90;;;;;;5003620;28;20033;-76
2023/03/25 03:38:12;;;;;;;7.45;3.67;;;9.50;99.90;;;;;;5008191;28;20030;-72
2023/03/25 03:40:43;;;;;;;9.90;4.05;;;9.50;99.90;;;;;;5003589;28;20037;-74
2023/03/25 03:43:24;;;;;;;7.68;3.15;;;9.50;99.90;;;;;;5007606;28;20033;-74
2023/03/25 03:45:55;;;;;;;8.32;3.55;;;9.50;99.90;;;;;;5007630;28;20029;-74
2023/03/25 03:48:31;;;;;;;7.38;3.95;;;9.50;99.90;;;;;;5007305;28;20026;-73
2023/03/25 03:51:03;;;;;;;7.22;3.88;;;9.50;99.90;;;;;;5007164;28;20038;-73
2023/03/25 03:53:33;;;;;;;6.90;3.42;;;9.40;99.90;;;;;;5032924;28;20030;-75
2023/03/25 03:56:07;;;;;;;8.25;3.58;;;9.50;99.90;;;;;;5008998;28;20041;-73
2023/03/25 03:58:41;;;;;;;7.57;3.60;;;9.50;99.90;;;;;;5012014;28;20532;-73
2023/03/25 04:01:26;;;;;;;7.57;3.70;;;9.50;99.90;;;;;;5007583;28;20052;-72
2023/03/25 04:04:03;;;;;;;6.35;3.55;;;9.50;99.90;;;;;;5003670;28;20021;-72
2023/03/25 04:06:40;;;;;;;4.40;2.70;;;9.50;99.90;;;;;;5032918;28;20033;-74
2023/03/25 04:09:26;;;;;;;8.35;3.47;;;9.50;99.90;;;;;;5007172;28;20034;-72
2023/03/25 04:12:03;;;;;;;6.05;2.67;;;9.40;99.90;;;;;;5008767;28;20045;-75
2023/03/25 04:14:29;;;;;;;8.57;3.17;;;9.40;99.90;;;;;;5008983;28;20109;-72
2023/03/25 04:16:55;;;;;;;9.15;3.30;;;9.40;99.90;;;;;;5006716;28;20553;-74
2023/03/25 04:19:22;;;;;;;6.57;3.30;;;9.40;99.90;;;;;;5003333;28;20431;-72
2023/03/25 04:21:48;;;;;;;9.68;4.18;;;9.40;99.90;;;;;;5006001;28;20145;-74
2023/03/25 04:24:15;;;;;;;6.90;3.33;;;9.40;99.90;;;;;;5005406;28;20478;-72
2023/03/25 04:26:42;;;;;;;7.78;3.13;;;9.40;99.90;;;;;;5005741;28;20033;-72
2023/03/25 04:29:08;;;;;;;7.82;3.15;;;9.40;99.90;;;;;;5004204;28;20030;-74
2023/03/25 04:31:34;;;;;;;6.63;3.65;;;9.40;99.90;;;;;;5007728;28;20040;-74
2023/03/25 04:34:03;;;;;;;5.70;2.92;;;9.50;99.90;;;;;;5008332;28;20038;-76
2023/03/25 04:36:36;;;;;;;8.30;3.25;;;9.50;99.90;;;;;;5004533;28;20026;-73
2023/03/25 04:39:02;;;;;;;15.38;3.95;;;9.50;99.90;;;;;;5006454;28;20037;-75
2023/03/25 04:41:28;;;;;;;11.52;3.10;;;9.40;99.90;;;;;;5037673;28;20026;-75
2023/03/25 04:43:53;;;;;;;8.45;3.70;;;9.40;99.90;;;;;;5005436;28;20033;-72
2023/03/25 04:46:19;;;;;;;9.23;3.55;;;9.20;99.90;;;;;;5008800;28;20528;-77
2023/03/25 04:48:46;;;;;;;7.13;3.22;;;9.10;99.90;;;;;;5009089;28;20033;-72
2023/03/25 04:51:12;;;;;;;10.00;3.55;;;9.00;99.90;;;;;;5012588;28;20061;-73
2023/03/25 04:53:39;;;;;;;8.55;3.67;;;8.90;99.90;;;;;;5008149;28;20065;-73
2023/03/25 04:56:11;;;;;;;9.30;3.72;;;8.80;99.90;;;;;;5008924;28;20126;-72
2023/03/25 04:58:39;;;;;;;12.00;3.70;;;8.80;99.90;;;;;;5008245;28;20099;-76
2023/03/25 05:01:05;;;;;;;11.57;4.20;;;8.80;99.90;;;;;;5008227;28;20026;-72
2023/03/25 05:03:32;;;;;;;12.40;4.18;;;8.80;99.90;;;;;;5006961;28;20520;-75
2023/03/25 05:05:59;;;;;;;9.07;3.78;;;8.80;99.90;;;;;;5005894;28;20140;-72
2023/03/25 05:08:25;;;;;;;11.10;3.75;;;8.70;99.90;;;;;;5007091;28;20112;-72
2023/03/25 05:10:51;;;;;;;14.13;4.28;;;8.70;99.90;;;;;;5006287;28;20126;-72
2023/03/25 05:13:17;;;;;;;7.88;3.38;;;8.70;99.90;;;;;;5005376;28;20134;-74
2023/03/25 05:15:43;;;;;;;6.47;3.47;;;8.70;99.90;;;;;;5004402;28;20046;-75
2023/03/25 05:18:13;;;;;;;11.88;4.22;;;8.70;99.90;;;;;;5011890;28;20029;-75
2023/03/25 05:20:41;;;;;;;10.05;3.67;;;8.70;99.90;;;;;;5013412;28;20030;-73
2023/03/25 05:23:16;;;;;;;8.10;3.60;;;8.60;99.90;;;;;;5011303;28;20030;-74
2023/03/25 05:25:43;;;;;;;10.00;3.60;;;8.60;99.90;;;;;;5008689;28;20518;-75
2023/03/25 05:28:12;;;;;;;10.07;4.18;;;8.60;99.90;;;;;;5010154;28;20034;-73
2023/03/25 05:30:44;;;;;;;8.45;3.70;;;8.60;99.90;;;;;;5010143;28;20041;-73
2023/03/25 05:33:14;;;;;;;9.32;4.13;;;8.60;99.90;;;;;;5010080;28;20100;-73
2023/03/25 05:35:41;;;;;;;11.23;4.50;;;8.50;99.90;;;;;;5009394;28;20030;-72
2023/03/25 05:38:08;;;;;;;10.77;4.10;;;8.50;99.90;;;;;;5019611;28;20030;-75
2023/03/25 05:40:35;;;;;;;8.10;4.07;;;8.50;99.90;;;;;;5010243;28;20053;-73
2023/03/25 05:43:02;;;;;;;10.18;4.00;;;8.50;99.90;;;;;;5009197;28;20084;-74
2023/03/25 05:45:28;;;;;;;13.25;5.05;;;8.50;99.90;;;;;;5011553;28;20022;-73
2023/03/25 05:47:54;;;;;;;14.63;4.63;;;8.50;99.90;;;;;;5009250;28;20030;-73
2023/03/25 05:50:20;;;;;;;7.93;3.90;;;8.40;99.90;;;;;;5010855;28;20037;-75
2023/03/25 05:52:48;;;;;;;13.38;4.45;;;8.40;99.90;;;;;;5033801;28;20033;-75
2023/03/25 05:55:16;;;;;;;7.75;3.90;;;8.40;99.90;;;;;;5009767;28;20056;-76
2023/03/25 05:57:42;;;;;;;10.90;4.07;;;8.40;99.90;;;;;;5008877;28;20441;-73
2023/03/25 06:00:11;;;;;;;9.45;3.80;;;8.40;99.90;;;;;;5007914;28;20037;-73
2023/03/25 06:02:38;;;;;;;6.95;3.55;;;8.30;99.90;;;;;;5002928;28;20457;-73
2023/03/25 06:05:05;;;;;;;8.18;4.25;;;8.30;99.90;;;;;;5012047;28;20895;-73
2023/03/25 06:07:31;;;;;;;7.68;3.40;;;8.30;99.90;;;;;;5008176;28;20038;-73
2023/03/25 06:09:57;;;;;;;9.88;4.20;;;8.40;99.90;;;;;;5011776;28;20091;-76
2023/03/25 06:12:26;;;;;;;12.05;4.07;;;8.30;99.90;;;;;;5010598;28;20028;-73
2023/03/25 06:14:55;;;;;;;13.50;4.30;;;8.70;99.90;;;;;;5005929;28;20057;-75
2023/03/25 06:17:22;;;;;;;10.90;4.15;;;8.60;99.90;;;;;;5008968;28;20025;-76
2023/03/25 06:19:49;;;;;;;11.50;4.72;;;8.70;99.90;;;;;;5007281;28;20839;-73
2023/03/25 06:22:19;;;;;;;11.35;4.57;;;8.60;99.90;;;;;;5010890;28;20127;-75
2023/03/25 06:24:46;;;;;;;14.30;5.15;;;8.50;99.90;;;;;;5008066;28;20029;-76
2023/03/25 06:27:15;;;;;;;12.30;5.03;;;8.50;99.90;;;;;;5009406;28;20026;-75
2023/03/25 06:29:41;;;;;;;11.77;3.85;;;8.50;99.90;;;;;;5009931;28;20037;-75
2023/03/25 06:32:08;;;;;;;10.15;4.15;;;8.50;99.90;;;;;;5007513;28;20204;-75
2023/03/25 06:34:34;;;;;;;9.10;4.35;;;8.50;99.90;;;;;;5005705;28;20557;-73
2023/03/25 06:37:00;;;;;;;10.73;4.28;;;8.60;99.90;;;;;;5008995;28;20022;-75
2023/03/25 06:39:29;;;;;;;14.05;4.47;;;8.60;99.90;;;;;;5008310;28;20497;-72
2023/03/25 06:41:56;;;;;;;10.80;4.15;;;8.70;99.90;;;;;;5009584;28;20026;-73
2023/03/25 06:44:22;;;;;;;11.90;3.92;;;8.70;99.90;;;;;;5004322;28;20049;-73
2023/03/25 06:46:47;;;;;;;8.20;3.67;;;8.70;99.90;;;;;;5007015;28;20726;-73
2023/03/25 06:49:13;;;;;;;14.90;5.15;;;8.70;99.90;;;;;;5002334;28;20034;-77
2023/03/25 06:51:39;;;;;;;13.82;4.38;;;8.70;99.90;;;;;;4999886;28;20104;-75
2023/03/25 06:54:05;;;;;;;14.13;4.30;;;8.80;99.90;;;;;;5000585;28;20212;-77
2023/03/25 06:56:30;;;;;;;11.35;4.20;;;8.80;99.90;;;;;;5013893;28;20029;-76
2023/03/25 06:58:57;;;;;;;14.23;4.53;;;8.80;99.90;;;;;;4988390;28;20037;-76
2023/03/25 07:01:23;;;;;;;6.35;3.53;;;8.80;99.90;;;;;;5016507;28;20037;-76
2023/03/25 07:03:49;;;;;;;11.27;3.92;;;8.80;99.90;;;;;;5011898;28;20045;-78
2023/03/25 07:06:20;;;;;;;10.90;3.42;;;8.80;99.90;;;;;;5004222;28;20670;-73
2023/03/25 07:08:46;;;;;;;9.93;3.10;;;8.70;99.90;;;;;;5030635;28;20497;-76
2023/03/25 07:11:14;;;;;;;7.93;2.72;;;8.70;99.90;;;;;;5005926;28;20053;-75
2023/03/25 07:13:40;;;;;;;7.18;3.65;;;8.70;99.90;;;;;;4999426;28;20040;-75
2023/03/25 07:16:07;;;;;;;12.10;3.67;;;8.70;99.90;;;;;;5001537;28;20034;-75
2023/03/25 07:18:33;;;;;;;9.05;3.72;;;8.80;99.90;;;;;;5009324;28;20490;-73
2023/03/25 07:20:59;;;;;;;9.80;3.47;;;8.80;99.90;;;;;;5005525;28;20038;-73
2023/03/25 07:23:25;;;;;;;10.75;3.42;;;8.90;99.90;;;;;;5007115;28;20034;-77
2023/03/25 07:25:51;;;;;;;11.00;3.97;;;9.00;99.90;;;;;;5001335;28;20381;-73
2023/03/25 07:28:17;;;;;;;12.80;3.40;;;9.10;99.90;;;;;;4985581;28;20034;-73
2023/03/25 07:30:42;;;;;;;10.60;3.53;;;9.10;99.90;;;;;;5010604;28;20033;-74
2023/03/25 07:33:08;;;;;;;13.10;4.13;;;9.10;99.90;;;;;;5007248;28;20029;-74
2023/03/25 07:35:34;;;;;;;8.25;3.53;;;9.10;99.90;;;;;;5000120;28;20524;-75
2023/03/25 07:38:00;;;;;;;13.00;3.75;;;9.20;99.90;;;;;;5005646;28;20065;-75
2023/03/25 07:40:26;;;;;;;14.13;3.80;;;9.30;99.90;;;;;;5003018;28;20036;-73
2023/03/25 07:42:51;;;;;;;12.15;3.42;;;9.30;99.90;;;;;;5027997;28;20480;-73
2023/03/25 07:45:17;;;;;;;11.02;3.42;;;9.40;99.90;;;;;;5008763;28;20034;-74
2023/03/25 07:47:48;;;;;;;15.20;3.47;;;9.40;99.90;;;;;;5006801;28;20014;-75
2023/03/25 07:50:16;;;;;;;9.57;2.90;;;9.40;99.90;;;;;;5002221;28;20068;-75
2023/03/25 07:52:42;;;;;;;8.60;2.95;;;9.40;99.90;;;;;;5006188;28;20121;-74
2023/03/25 07:55:08;;;;;;;7.97;2.63;;;9.50;99.90;;;;;;5010060;28;20037;-75
2023/03/25 07:57:34;;;;;;;7.35;2.40;;;9.50;99.90;;;;;;4999046;28;20523;-74
2023/03/25 07:59:59;;;;;;;11.15;3.13;;;9.60;99.90;;;;;;4987076;28;20066;-77
2023/03/25 08:02:25;;;;;;;10.38;2.97;;;9.60;99.90;;;;;;5003113;28;20113;-73
2023/03/25 08:04:53;;;;;;;7.22;2.78;;;9.60;99.90;;;;;;5008241;28;20083;-73
2023/03/25 08:07:20;;;;;;;8.00;2.90;;;9.60;99.90;;;;;;5007885;28;20093;-74
2023/03/25 08:09:46;;;;;;;10.73;2.80;;;9.70;99.90;;;;;;5005533;28;20038;-76
2023/03/25 08:12:12;;;;;;;7.78;3.00;;;9.70;99.90;;;;;;5007094;28;20034;-74
2023/03/25 08:14:38;;;;;;;11.18;2.90;;;9.70;99.90;;;;;;5002989;28;20045;-72
2023/03/25 08:17:05;;;;;;;8.77;2.60;;;9.60;99.90;;;;;;5002875;28;20061;-77
2023/03/25 08:19:31;;;;;;;8.27;2.50;;;9.60;99.90;;;;;;5002462;28;20037;-75
2023/03/25 08:21:58;;;;;;;13.93;2.95;;;9.60;99.90;;;;;;5007306;28;20106;-74
2023/03/25 08:24:25;;;;;;;10.75;3.35;;;9.70;99.90;;;;;;5004018;28;20026;-76
2023/03/25 08:26:53;;;;;;;9.13;2.55;;;9.80;99.90;;;;;;5002548;28;20026;-73
2023/03/25 08:29:19;;;;;;;9.20;2.80;;;9.80;99.90;;;;;;5007407;28;20043;-70
2023/03/25 08:31:45;;;;;;;8.60;2.25;;;9.90;99.90;;;;;;5005558;28;20030;-73
2023/03/25 08:34:12;;;;;;;12.00;2.58;;;9.90;99.90;;;;;;5004236;28;20025;-73
2023/03/25 08:36:38;;;;;;;10.00;2.50;;;10.00;99.90;;;;;;5004246;28;20481;-72
2023/03/25 08:39:08;;;;;;;7.32;2.35;;;10.00;99.90;;;;;;5003947;28;20076;-73
2023/03/25 08:41:36;;;;;;;8.18;2.83;;;9.90;99.90;;;;;;5005381;28;20022;-73
2023/03/25 08:44:02;;;;;;;9.68;3.33;;;10.00;99.90;;;;;;5005120;28;20037;-74
2023/03/25 08:46:28;;;;;;;9.13;2.90;;;9.90;99.90;;;;;;5039017;28;20025;-72
2023/03/25 08:48:54;;;;;;;12.18;3.30;;;9.80;99.90;;;;;;4992456;28;20497;-72
2023/03/25 08:51:21;;;;;;;5.97;2.30;;;9.80;99.90;;;;;;5010021;28;20040;-74
2023/03/25 08:53:46;;;;;;;8.35;2.25;;;9.80;99.90;;;;;;5007829;28;20038;-74
2023/03/25 08:56:12;;;;;;;10.85;2.75;;;9.80;99.90;;;;;;5003575;28;20029;-75
2023/03/25 08:58:38;;;;;;;15.48;2.88;;;9.70;99.90;;;;;;5006069;28;20064;-73
2023/03/25 09:01:04;;;;;;;10.02;2.95;;;9.60;99.90;;;;;;5012150;28;20029;-72
2023/03/25 09:03:30;;;;;;;8.02;3.03;;;9.50;99.90;;;;;;4993302;28;20027;-72
2023/03/25 09:05:56;;;;;;;6.95;2.05;;;9.40;99.90;;;;;;5007986;28;20026;-76
2023/03/25 09:08:24;;;;;;;8.25;2.20;;;9.40;99.90;;;;;;5006785;28;20026;-73
2023/03/25 09:10:50;;;;;;;3.83;1.42;;;9.30;99.90;;;;;;5020901;28;20030;-73
2023/03/25 09:13:16;;;;;;;3.60;1.38;;;9.30;99.90;;;;;;5006547;28;20100;-72
2023/03/25 09:15:42;;;;;;;4.25;1.20;;;9.20;99.90;;;;;;5007882;28;20033;-74
2023/03/25 09:18:09;;;;;;;4.10;1.25;;;9.20;99.90;;;;;;5047885;28;20030;-73
2023/03/25 09:20:34;;;;;;;1.75;1.15;;;9.10;99.90;;;;;;5044555;28;20040;-74
2023/03/25 09:23:00;;;;;;;3.15;1.02;;;9.10;99.90;;;;;;5008691;28;20026;-74
2023/03/25 09:25:27;;;;;;;4.07;1.30;;;9.00;99.90;;;;;;5002853;28;20065;-71
2023/03/25 09:27:52;;;;;;;5.95;1.90;;;9.00;99.90;;;;;;4999395;28;20078;-71
2023/03/25 09:30:18;;;;;;;7.30;1.85;;;9.00;99.90;;;;;;5003295;28;20029;-70
2023/03/25 09:32:44;;;;;;;3.20;1.42;;;9.00;99.90;;;;;;5006143;28;20034;-71
2023/03/25 09:35:10;;;;;;;4.75;1.65;;;9.00;99.90;;;;;;5004636;28;20034;-71
2023/03/25 09:37:36;;;;;;;6.50;1.60;;;9.00;99.90;;;;;;5002324;28;20158;-72
2023/03/25 09:40:03;;;;;;;7.28;1.73;;;9.00;99.90;;;;;;5009126;28;20534;-73
2023/03/25 09:42:53;;;;;;;2.38;1.30;;;8.90;99.90;;;;;;4990981;28;20386;-73
2023/03/25 09:45:34;;;;;;;5.43;2.28;;;9.00;99.90;;;;;;5007489;28;20029;-74
2023/03/25 09:48:24;;;;;;;5.43;1.50;;;8.90;99.90;;;;;;5007194;28;20030;-74
2023/03/25 09:50:50;;;;;;;4.75;1.73;;;8.90;99.90;;;;;;5006833;28;20030;-74
2023/03/25 09:53:30;;;;;;;4.22;1.63;;;8.90;99.90;;;;;;5005968;28;21508;-74
2023/03/25 09:55:56;;;;;;;4.63;1.50;;;8.90;99.90;;;;;;5007167;28;20029;-74
2023/03/25 09:58:57;;;;;;;2.17;1.23;;;8.90;99.90;;;;;;4988983;28;20056;-74
2023/03/25 10:02:01;;;;;;;4.67;1.60;;;8.90;99.90;;;;;;5004404;28;20021;-72
2023/03/25 10:04:49;;;;;;;3.47;1.42;;;8.90;99.90;;;;;;4989440;28;20081;-72
2023/03/25 10:07:43;;;;;;;3.30;1.25;;;9.00;99.90;;;;;;5008112;28;20025;-73
2023/03/25 10:10:37;;;;;;;4.55;1.23;;;9.10;99.90;;;;;;5004052;28;20037;-77
2023/03/25 10:13:21;;;;;;;3.03;1.17;;;9.30;99.90;;;;;;5003939;28;20062;-76
2023/03/25 10:15:54;;;;;;;2.28;1.00;;;9.30;99.90;;;;;;4979775;28;20068;-75
2023/03/25 10:18:32;;;;;;;4.75;1.42;;;9.30;99.90;;;;;;5003132;28;20038;-74
2023/03/25 10:21:00;;;;;;;2.88;1.00;;;9.40;99.90;;;;;;5003884;28;20026;-75
2023/03/25 10:23:38;;;;;;;4.28;1.00;;;9.40;99.90;;;;;;5004977;28;20026;-74
2023/03/25 10:26:11;;;;;;;4.50;1.55;;;9.40;99.90;;;;;;5005530;28;20578;-73
2023/03/25 10:28:48;;;;;;;8.40;2.00;;;9.40;99.90;;;;;;5004869;28;20033;-74
2023/03/25 10:31:20;;;;;;;6.05;1.73;;;9.60;99.90;;;;;;5006397;28;20081;-74
2023/03/25 10:33:55;;;;;;;9.13;2.17;;;9.80;99.90;;;;;;5005013;28;20037;-73
2023/03/25 10:36:45;;;;;;;7.43;1.75;;;9.90;99.90;;;;;;5002150;28;20034;-72
2023/03/25 10:39:23;;;;;;;11.55;2.42;;;9.90;99.90;;;;;;5000765;28;20048;-75
2023/03/25 10:41:58;;;;;;;7.72;2.00;;;9.90;99.90;;;;;;5004929;28;20064;-76
2023/03/25 10:44:26;;;;;;;7.20;1.80;;;10.00;99.90;;;;;;5030932;28;20021;-74
2023/03/25 10:47:05;;;;;;;6.15;1.77;;;10.10;99.90;;;;;;5007173;28;20371;-74
2023/03/25 10:49:32;;;;;;;8.32;1.80;;;10.20;99.90;;;;;;4996355;28;20414;-73
2023/03/25 10:51:59;;;;;;;15.15;2.22;;;10.20;99.90;;;;;;5003550;28;20041;-73
2023/03/25 10:54:32;;;;;;;8.57;1.83;;;10.20;99.90;;;;;;4996853;28;20853;-72
2023/03/25 10:57:02;;;;;;;8.98;2.00;;;10.30;99.90;;;;;;5002544;28;20025;-73
2023/03/25 10:59:32;;;;;;;8.60;1.83;;;10.30;99.90;;;;;;5030563;28;20035;-72
2023/03/25 11:02:10;;;;;;;7.27;1.70;;;10.30;99.90;;;;;;5006138;28;20034;-73
2023/03/25 11:04:40;;;;;;;5.93;1.65;;;10.30;99.90;;;;;;5004635;28;20037;-74
2023/03/25 11:07:40;;;;;;;10.80;2.28;;;10.20;99.90;;;;;;5006196;28;20025;-75
2023/03/25 11:10:31;;;;;;;6.32;1.95;;;10.20;99.90;;;;;;5003805;28;20049;-75
2023/03/25 11:13:02;;;;;;;8.95;2.33;;;10.20;99.90;;;;;;5007507;28;20057;-74
2023/03/25 11:15:36;;;;;;;5.82;1.95;;;10.00;99.90;;;;;;5003137;28;20038;-76
2023/03/25 11:18:11;;;;;;;4.90;1.52;;;9.80;99.90;;;;;;4996025;28;20037;-75
2023/03/25 11:20:40;;;;;;;5.18;1.33;;;9.70;99.90;;;;;;4986615;28;20029;-74
2023/03/25 11:23:18;;;;;;;3.83;1.38;;;9.60;99.90;;;;;;5003352;28;20032;-75
2023/03/25 11:25:44;;;;;;;2.88;1.30;;;9.50;99.90;;;;;;5005831;28;20136;-74
2023/03/25 11:28:20;;;;;;;4.28;1.08;;;9.40;99.90;;;;;;5005670;28;20108;-74
2023/03/25 11:31:19;;;;;;;6.05;1.40;;;9.30;99.90;;;;;;5020214;28;20506;-75
2023/03/25 11:34:12;;;;;;;4.55;1.83;;;9.30;99.90;;;;;;5003907;28;20037;-75
2023/03/25 11:36:58;;;;;;;4.43;1.38;;;9.40;99.90;;;;;;5005612;28;20041;-75
2023/03/25 11:39:38;;;;;;;5.70;1.92;;;9.60;99.90;;;;;;5027647;28;20117;-75
2023/03/25 11:42:16;;;;;;;4.50;1.17;;;9.80;99.90;;;;;;5007313;28;20097;-75
2023/03/25 11:44:51;;;;;;;3.70;1.00;;;9.90;99.90;;;;;;5005068;28;20033;-75
2023/03/25 11:47:23;;;;;;;3.10;0.77;;;10.00;99.90;;;;;;5007103;28;20034;-75
2023/03/25 11:49:51;;;;;;;1.95;0.95;;;9.90;99.90;;;;;;5002892;28;20399;-76
2023/03/25 11:52:23;;;;;;;3.78;1.00;;;10.10;99.90;;;;;;5003827;28;20562;-75
2023/03/25 11:54:51;;;;;;;;;;;10.30;99.90;;;;;;4992856;28;20046;-75
2023/03/25 11:57:30;;;;;;;2.10;1.02;;;10.50;99.90;;;;;;4996191;28;19917;-75
2023/03/25 12:00:22;;;;;;;3.00;1.00;;;10.60;99.90;;;;;;4993351;28;20034;-74
2023/03/25 12:03:02;;;;;;;2.38;1.00;;;10.60;99.90;;;;;;5002131;28;20152;-72
2023/03/25 12:05:29;;;;;;;5.63;1.17;;;10.80;99.90;;;;;;5003866;28;20084;-72
2023/03/25 12:08:14;;;;;;;4.22;1.08;;;10.90;99.90;;;;;;5002639;28;20044;-73
2023/03/25 12:10:52;;;;;;;4.20;1.00;;;10.90;99.90;;;;;;4988290;28;20026;-73
2023/03/25 12:13:31;;;;;;;1.98;1.13;;;10.80;99.90;;;;;;5025688;28;20092;-76
2023/03/25 12:16:26;;;;;;;2.65;0.80;;;10.70;99.90;;;;;;5002545;28;20030;-72
2023/03/25 12:19:19;;;;;;;2.70;0.90;;;10.50;99.90;;;;;;5007102;28;20026;-73
2023/03/25 12:22:04;;;;;;;4.22;1.20;;;10.40;99.90;;;;;;5001936;28;20034;-77
2023/03/25 12:24:57;;;;;;;4.30;1.35;;;10.30;99.90;;;;;;5014878;28;20021;-75
2023/03/25 12:27:26;;;;;;;4.60;1.00;;;10.50;99.90;;;;;;4986158;28;20695;-72
2023/03/25 12:30:16;;;;;;;4.38;1.20;;;10.60;99.90;;;;;;4995567;28;21457;-73
2023/03/25 12:32:52;;;;;;;6.05;1.17;;;10.70;99.90;;;;;;5006805;28;20034;-73
2023/03/25 12:35:27;;;;;;;6.80;2.08;;;10.80;99.90;;;;;;5025319;28;20148;-73
2023/03/25 12:38:12;;;;;;;7.80;1.40;;;10.80;99.90;;;;;;5006703;28;20030;-73
2023/03/25 12:40:54;;;;;;;7.10;2.25;;;10.90;99.90;;;;;;5000256;28;20053;-75
2023/03/25 12:43:38;;;;;;;4.05;1.30;;;10.80;99.90;;;;;;4996850;28;20137;-75
2023/03/25 12:46:09;;;;;;;7.90;1.70;;;10.70;99.90;;;;;;5013913;28;20022;-76
2023/03/25 12:49:10;;;;;;;11.52;2.08;;;10.60;99.90;;;;;;5007535;28;20026;-74
2023/03/25 12:52:03;;;;;;;5.72;1.33;;;10.50;99.90;;;;;;5001757;28;20042;-74
2023/03/25 12:54:41;;;;;;;6.22;1.70;;;10.50;99.90;;;;;;5019417;28;20494;-73
2023/03/25 12:57:46;;;;;;;4.55;1.55;;;10.60;99.90;;;;;;5007700;28;20097;-72
2023/03/25 13:00:38;;;;;;;5.35;1.17;;;10.50;99.90;;;;;;5006316;28;20083;-72
2023/03/25 13:03:31;;;;;;;3.13;1.02;;;10.50;99.90;;;;;;5009322;28;20030;-73
2023/03/25 13:06:06;;;;;;;3.28;1.35;;;10.50;99.90;;;;;;4996173;28;20044;-76
2023/03/25 13:08:51;;;;;;;5.55;1.52;;;10.50;99.90;;;;;;5033090;28;20022;-77
2023/03/25 13:11:20;;;;;;;5.22;2.10;;;10.40;99.90;;;;;;5005469;28;20506;-74
2023/03/25 13:13:48;;;;;;;5.15;1.90;;;10.40;99.90;;;;;;5015805;28;20037;-73
2023/03/25 13:16:24;;;;;;;6.82;2.60;;;10.30;99.90;;;;;;5005733;28;20048;-73